createdAt,value
2017-09-09T00:00:01.308Z,9.27
2017-09-09T00:02:30.591Z,9.43
2017-09-09T00:05:00.947Z,9.80
2017-09-09T00:07:30.387Z,9.23
2017-09-09T00:09:59.843Z,10.20
2017-09-09T00:12:29.496Z,9.10
2017-09-09T00:14:58.655Z,9.37
2017-09-09T00:17:27.921Z,9.67
2017-09-09T00:19:57.518Z,8.97
2017-09-09T00:22:26.813Z,10.23
2017-09-09T00:24:56.218Z,9.50
2017-09-09T00:27:25.728Z,9.60
2017-09-09T00:29:54.924Z,9.83
2017-09-09T00:32:23.995Z,9.83
2017-09-09T00:34:53.319Z,10.80
2017-09-09T00:37:22.678Z,9.47
2017-09-09T00:39:52.569Z,10.20
2017-09-09T00:42:21.880Z,10.13
2017-09-09T00:44:51.009Z,11.00
2017-09-09T00:47:21.000Z,10.47
2017-09-09T00:49:50.251Z,9.90
2017-09-09T00:52:19.571Z,10.93
2017-09-09T00:54:49.087Z,9.80
2017-09-09T00:57:19.016Z,11.20
2017-09-09T00:59:48.520Z,9.97
2017-09-09T01:02:17.665Z,10.63
2017-09-09T01:04:46.921Z,11.57
2017-09-09T01:07:16.263Z,9.43
2017-09-09T01:09:45.460Z,11.33
2017-09-09T01:12:14.724Z,11.10
2017-09-09T01:14:44.021Z,10.90
2017-09-09T01:17:13.334Z,10.73
2017-09-09T01:19:42.410Z,10.90
2017-09-09T01:22:12.463Z,11.13
2017-09-09T01:24:41.252Z,10.73
2017-09-09T01:27:10.595Z,9.73
2017-09-09T01:29:39.923Z,9.37
2017-09-09T01:32:09.429Z,9.67
2017-09-09T01:34:38.679Z,11.47
2017-09-09T01:37:07.985Z,11.60
2017-09-09T01:39:37.452Z,10.80
2017-09-09T01:42:08.386Z,10.67
2017-09-09T01:44:37.082Z,11.03
2017-09-09T01:47:05.996Z,11.43
2017-09-09T01:49:34.813Z,10.37
2017-09-09T01:52:04.207Z,10.80
2017-09-09T01:54:34.468Z,11.07
2017-09-09T01:57:04.021Z,11.60
2017-09-09T01:59:33.241Z,11.00
2017-09-09T02:02:02.576Z,11.60
2017-09-09T02:04:32.471Z,9.97
2017-09-09T02:07:01.936Z,10.63
2017-09-09T02:09:31.115Z,9.10
2017-09-09T02:11:59.884Z,9.93
2017-09-09T02:14:28.693Z,9.43
2017-09-09T02:16:57.801Z,10.90
2017-09-09T02:19:26.669Z,9.00
2017-09-09T02:21:56.039Z,8.87
2017-09-09T02:24:26.386Z,9.17
2017-09-09T02:26:55.888Z,8.93
2017-09-09T02:29:27.410Z,9.70
2017-09-09T02:31:56.767Z,10.90
2017-09-09T02:34:25.943Z,10.03
2017-09-09T02:36:55.035Z,8.57
2017-09-09T02:39:24.557Z,8.43
2017-09-09T02:41:53.971Z,9.13
2017-09-09T02:44:24.177Z,9.53
2017-09-09T02:46:53.404Z,8.40
2017-09-09T02:49:22.740Z,8.63
2017-09-09T02:51:52.275Z,9.50
2017-09-09T02:54:21.455Z,9.27
2017-09-09T02:56:50.795Z,9.40
2017-09-09T02:59:20.134Z,8.30
2017-09-09T03:01:50.190Z,9.50
2017-09-09T03:04:19.760Z,9.23
2017-09-09T03:06:49.506Z,9.67
2017-09-09T03:09:22.790Z,9.57
2017-09-09T03:11:55.943Z,8.80
2017-09-09T03:14:25.824Z,9.40
2017-09-09T03:16:56.190Z,8.80
2017-09-09T03:19:25.264Z,9.40
2017-09-09T03:21:54.803Z,9.47
2017-09-09T03:24:24.134Z,9.00
2017-09-09T03:26:53.623Z,8.67
2017-09-09T03:29:26.228Z,10.00
2017-09-09T03:31:56.323Z,9.23
2017-09-09T03:34:25.761Z,8.93
2017-09-09T03:36:55.041Z,10.17
2017-09-09T03:39:24.278Z,8.60
2017-09-09T03:41:53.651Z,8.83
2017-09-09T03:44:24.936Z,8.30
2017-09-09T03:46:54.074Z,7.90
2017-09-09T03:49:23.307Z,8.20
2017-09-09T03:51:52.787Z,9.10
2017-09-09T03:54:22.166Z,9.20
2017-09-09T03:56:51.433Z,8.37
2017-09-09T03:59:21.445Z,9.00
2017-09-09T04:01:52.066Z,8.40
2017-09-09T04:04:21.457Z,9.27
2017-09-09T04:06:50.373Z,9.17
2017-09-09T04:09:19.408Z,9.30
2017-09-09T04:11:48.150Z,8.13
2017-09-09T04:14:17.559Z,8.20
2017-09-09T04:16:47.059Z,9.10
2017-09-09T04:19:16.143Z,9.00
2017-09-09T04:21:45.511Z,8.10
2017-09-09T04:24:14.378Z,7.60
2017-09-09T04:26:43.668Z,6.87
2017-09-09T04:29:12.420Z,8.50
2017-09-09T04:31:41.799Z,7.90
2017-09-09T04:34:11.171Z,7.13
2017-09-09T04:36:40.346Z,7.50
2017-09-09T04:39:09.410Z,7.40
2017-09-09T04:41:38.274Z,8.27
2017-09-09T04:44:07.834Z,6.93
2017-09-09T04:46:38.208Z,6.60
2017-09-09T04:49:07.589Z,7.30
2017-09-09T04:51:37.069Z,6.33
2017-09-09T04:54:06.331Z,6.53
2017-09-09T04:56:35.954Z,6.40
2017-09-09T04:59:04.789Z,6.20
2017-09-09T05:01:34.029Z,6.90
2017-09-09T05:04:03.249Z,7.10
2017-09-09T05:06:32.726Z,6.60
2017-09-09T05:09:02.107Z,6.23
2017-09-09T05:11:31.195Z,6.80
2017-09-09T05:13:59.939Z,7.17
2017-09-09T05:16:29.257Z,5.93
2017-09-09T05:18:58.975Z,6.40
2017-09-09T05:21:28.811Z,7.37
2017-09-09T05:23:58.083Z,6.00
2017-09-09T05:26:27.561Z,6.50
2017-09-09T05:28:56.904Z,5.67
2017-09-09T05:31:25.814Z,6.30
2017-09-09T05:33:54.549Z,6.33
2017-09-09T05:36:23.352Z,5.63
2017-09-09T05:38:52.755Z,6.47
2017-09-09T05:41:22.214Z,5.80
2017-09-09T05:43:51.578Z,6.23
2017-09-09T05:46:21.790Z,7.10
2017-09-09T05:48:52.414Z,6.90
2017-09-09T05:51:21.192Z,6.93
2017-09-09T05:53:49.895Z,5.73
2017-09-09T05:56:19.224Z,5.87
2017-09-09T05:58:49.235Z,6.77
2017-09-09T06:01:18.305Z,6.87
2017-09-09T06:03:47.701Z,6.73
2017-09-09T06:06:17.168Z,6.63
2017-09-09T06:08:45.858Z,6.23
2017-09-09T06:11:15.320Z,6.00
2017-09-09T06:13:44.802Z,5.60
2017-09-09T06:16:14.141Z,6.17
2017-09-09T06:18:43.599Z,5.80
2017-09-09T06:21:13.118Z,4.77
2017-09-09T06:23:42.415Z,5.20
2017-09-09T06:26:11.790Z,5.30
2017-09-09T06:28:41.096Z,6.27
2017-09-09T06:31:10.528Z,5.13
2017-09-09T06:33:39.834Z,6.07
2017-09-09T06:36:09.148Z,5.83
2017-09-09T06:38:38.270Z,6.50
2017-09-09T06:41:07.471Z,5.97
2017-09-09T06:43:36.943Z,5.23
2017-09-09T06:46:06.006Z,6.10
2017-09-09T06:48:35.267Z,5.17
2017-09-09T06:51:06.019Z,5.27
2017-09-09T06:53:35.244Z,5.63
2017-09-09T06:56:04.564Z,5.73
2017-09-09T06:58:33.937Z,5.60
2017-09-09T07:01:03.118Z,5.30
2017-09-09T07:03:32.495Z,5.83
2017-09-09T07:06:01.940Z,5.30
2017-09-09T07:08:31.237Z,5.33
2017-09-09T07:11:00.521Z,5.50
2017-09-09T07:13:29.655Z,5.33
2017-09-09T07:15:58.938Z,5.43
2017-09-09T07:18:28.092Z,5.57
2017-09-09T07:20:57.729Z,4.73
2017-09-09T07:23:27.022Z,5.00
2017-09-09T07:25:56.245Z,5.13
2017-09-09T07:28:25.423Z,4.90
2017-09-09T07:30:54.872Z,4.20
2017-09-09T07:33:24.187Z,5.13
2017-09-09T07:35:53.293Z,4.97
2017-09-09T07:38:22.541Z,5.37
2017-09-09T07:40:51.556Z,5.00
2017-09-09T07:43:21.067Z,4.57
2017-09-09T07:45:50.197Z,5.50
2017-09-09T07:48:19.579Z,5.07
2017-09-09T07:50:48.821Z,4.70
2017-09-09T07:53:18.796Z,4.50
2017-09-09T07:55:48.123Z,4.70
2017-09-09T07:58:17.339Z,4.10
2017-09-09T08:00:47.031Z,4.33
2017-09-09T08:03:16.932Z,4.67
2017-09-09T08:05:46.283Z,5.00
2017-09-09T08:08:15.460Z,4.33
2017-09-09T08:10:45.918Z,3.73
2017-09-09T08:13:15.328Z,4.00
2017-09-09T08:15:44.772Z,4.47
2017-09-09T08:18:14.302Z,3.90
2017-09-09T08:20:43.672Z,3.70
2017-09-09T08:23:12.752Z,3.70
2017-09-09T08:25:42.090Z,3.80
2017-09-09T08:28:12.547Z,4.17
2017-09-09T08:30:41.846Z,4.00
2017-09-09T08:33:11.199Z,4.07
2017-09-09T08:35:40.453Z,3.20
2017-09-09T08:38:09.785Z,4.30
2017-09-09T08:40:39.102Z,4.20
2017-09-09T08:43:08.209Z,4.50
2017-09-09T08:45:39.161Z,4.37
2017-09-09T08:48:09.286Z,4.23
2017-09-09T08:50:38.813Z,3.63
2017-09-09T08:53:07.990Z,3.70
2017-09-09T08:55:40.053Z,4.20
2017-09-09T08:58:09.362Z,4.10
2017-09-09T09:00:38.862Z,3.50
2017-09-09T09:03:08.134Z,3.13
2017-09-09T09:05:37.483Z,3.90
2017-09-09T09:08:06.589Z,4.03
2017-09-09T09:10:36.035Z,3.30
2017-09-09T09:13:06.358Z,3.50
2017-09-09T09:15:35.849Z,3.40
2017-09-09T09:18:05.204Z,3.90
2017-09-09T09:20:34.493Z,3.90
2017-09-09T09:23:03.866Z,3.80
2017-09-09T09:25:33.257Z,4.40
2017-09-09T09:28:02.424Z,3.33
2017-09-09T09:30:32.216Z,4.00
2017-09-09T09:33:01.592Z,3.47
2017-09-09T09:35:30.869Z,3.97
2017-09-09T09:38:00.158Z,3.90
2017-09-09T09:40:29.514Z,3.70
2017-09-09T09:42:58.708Z,4.00
2017-09-09T09:45:28.089Z,4.20
2017-09-09T09:47:58.335Z,3.87
2017-09-09T09:50:27.655Z,3.67
2017-09-09T09:52:57.407Z,3.90
2017-09-09T09:55:27.588Z,3.27
2017-09-09T09:57:56.895Z,4.03
2017-09-09T10:00:26.321Z,3.27
2017-09-09T10:02:55.631Z,3.70
2017-09-09T10:05:24.883Z,3.47
2017-09-09T10:07:54.278Z,3.40
2017-09-09T10:10:25.579Z,3.20
2017-09-09T10:12:54.881Z,3.67
2017-09-09T10:15:24.282Z,3.20
2017-09-09T10:17:53.889Z,3.20
2017-09-09T10:20:23.334Z,3.20
2017-09-09T10:22:53.679Z,2.93
2017-09-09T10:25:26.332Z,3.30
2017-09-09T10:27:55.771Z,3.63
2017-09-09T10:30:24.886Z,3.10
2017-09-09T10:32:55.026Z,2.87
2017-09-09T10:35:24.125Z,2.90
2017-09-09T10:37:53.539Z,3.13
2017-09-09T10:40:23.771Z,3.50
2017-09-09T10:42:53.065Z,3.50
2017-09-09T10:45:22.491Z,3.10
2017-09-09T10:47:52.121Z,3.37
2017-09-09T10:50:21.483Z,3.60
2017-09-09T10:52:50.800Z,2.70
2017-09-09T10:55:20.203Z,2.90
2017-09-09T10:57:49.576Z,2.70
2017-09-09T11:00:19.658Z,3.77
2017-09-09T11:02:49.249Z,3.40
2017-09-09T11:05:18.634Z,3.57
2017-09-09T11:07:47.946Z,2.93
2017-09-09T11:10:17.205Z,3.23
2017-09-09T11:12:47.523Z,2.83
2017-09-09T11:15:16.573Z,2.97
2017-09-09T11:17:45.761Z,3.17
2017-09-09T11:20:15.066Z,3.30
2017-09-09T11:22:44.505Z,3.07
2017-09-09T11:25:14.089Z,3.30
2017-09-09T11:27:43.274Z,3.00
2017-09-09T11:30:12.480Z,2.67
2017-09-09T11:32:41.760Z,2.83
2017-09-09T11:35:11.227Z,2.87
2017-09-09T11:37:40.485Z,2.97
2017-09-09T11:40:09.858Z,3.80
2017-09-09T11:42:39.361Z,2.90
2017-09-09T11:45:09.250Z,3.77
2017-09-09T11:47:38.759Z,2.83
2017-09-09T11:50:08.083Z,3.00
2017-09-09T11:52:37.380Z,2.80
2017-09-09T11:55:06.490Z,3.40
2017-09-09T11:57:35.646Z,3.30
2017-09-09T12:00:04.841Z,3.53
2017-09-09T12:02:35.271Z,3.10
2017-09-09T12:05:04.730Z,3.10
2017-09-09T12:07:34.078Z,3.03
2017-09-09T12:10:03.496Z,3.03
2017-09-09T12:12:32.893Z,3.07
2017-09-09T12:15:02.206Z,3.03
2017-09-09T12:17:31.559Z,2.70
2017-09-09T12:20:01.016Z,3.53
2017-09-09T12:22:30.140Z,3.40
2017-09-09T12:24:59.470Z,3.70
2017-09-09T12:27:28.968Z,3.13
2017-09-09T12:29:58.187Z,3.33
2017-09-09T12:32:27.518Z,2.87
2017-09-09T12:34:57.709Z,3.10
2017-09-09T12:37:27.165Z,2.73
2017-09-09T12:39:56.420Z,4.20
2017-09-09T12:42:25.605Z,2.90
2017-09-09T12:44:54.496Z,3.30
2017-09-09T12:47:24.034Z,3.13
2017-09-09T12:49:54.212Z,3.10
2017-09-09T12:52:23.549Z,3.10
2017-09-09T12:54:53.683Z,3.93
2017-09-09T12:57:23.005Z,2.80
2017-09-09T12:59:52.217Z,3.03
2017-09-09T13:02:21.436Z,3.40
2017-09-09T13:04:52.061Z,3.47
2017-09-09T13:07:21.248Z,2.70
2017-09-09T13:09:50.654Z,3.40
2017-09-09T13:12:19.979Z,3.33
2017-09-09T13:14:49.419Z,3.30
2017-09-09T13:17:19.568Z,3.00
2017-09-09T13:19:48.862Z,2.73
2017-09-09T13:22:18.094Z,3.07
2017-09-09T13:24:47.439Z,3.40
2017-09-09T13:27:17.687Z,2.80
2017-09-09T13:29:46.985Z,3.30
2017-09-09T13:32:16.378Z,3.10
2017-09-09T13:34:45.697Z,2.83
2017-09-09T13:37:15.124Z,3.63
2017-09-09T13:39:44.420Z,3.00
2017-09-09T13:42:13.633Z,3.07
2017-09-09T13:44:43.140Z,3.63
2017-09-09T13:47:12.468Z,3.00
2017-09-09T13:49:41.758Z,3.53
2017-09-09T13:52:11.071Z,3.57
2017-09-09T13:54:40.594Z,3.40
2017-09-09T13:57:09.840Z,3.90
2017-09-09T13:59:39.093Z,3.90
2017-09-09T14:02:08.607Z,3.97
2017-09-09T14:04:37.897Z,4.03
2017-09-09T14:07:08.210Z,3.40
2017-09-09T14:09:37.408Z,3.93
2017-09-09T14:12:07.338Z,3.80
2017-09-09T14:14:36.580Z,3.90
2017-09-09T14:17:06.026Z,3.33
2017-09-09T14:19:35.342Z,3.60
2017-09-09T14:22:04.692Z,3.80
2017-09-09T14:24:33.799Z,3.60
2017-09-09T14:27:02.998Z,3.17
2017-09-09T14:29:36.701Z,3.23
2017-09-09T14:32:05.984Z,3.93
2017-09-09T14:34:35.773Z,3.43
2017-09-09T14:37:06.373Z,3.27
2017-09-09T14:39:36.596Z,4.10
2017-09-09T14:42:06.859Z,3.50
2017-09-09T14:44:35.972Z,3.07
2017-09-09T14:47:05.258Z,3.80
2017-09-09T14:49:34.506Z,3.37
2017-09-09T14:52:03.984Z,3.50
2017-09-09T14:54:33.276Z,3.07
2017-09-09T14:57:02.349Z,3.00
2017-09-09T14:59:31.452Z,3.57
2017-09-09T15:02:00.744Z,3.30
2017-09-09T15:04:30.055Z,2.83
2017-09-09T15:06:59.423Z,2.70
2017-09-09T15:09:29.409Z,2.70
2017-09-09T15:11:58.879Z,3.00
2017-09-09T15:14:28.238Z,3.60
2017-09-09T15:16:57.788Z,2.70
2017-09-09T15:19:27.205Z,3.90
2017-09-09T15:21:59.616Z,2.77
2017-09-09T15:24:28.939Z,3.20
2017-09-09T15:26:58.128Z,4.23
2017-09-09T15:29:27.849Z,3.37
2017-09-09T15:31:57.317Z,3.10
2017-09-09T15:34:26.565Z,4.20
2017-09-09T15:36:55.691Z,3.50
2017-09-09T15:39:25.152Z,3.37
2017-09-09T15:41:54.566Z,3.00
2017-09-09T15:44:23.976Z,2.87
2017-09-09T15:46:53.036Z,3.17
2017-09-09T15:49:28.732Z,3.80
2017-09-09T15:51:57.533Z,3.27
2017-09-09T15:54:27.377Z,3.27
2017-09-09T15:56:57.422Z,3.67
2017-09-09T15:59:26.872Z,3.50
2017-09-09T16:01:56.123Z,3.63
2017-09-09T16:04:25.319Z,2.80
2017-09-09T16:06:54.640Z,3.50
2017-09-09T16:09:24.117Z,3.43
2017-09-09T16:11:54.403Z,3.57
2017-09-09T16:14:23.786Z,3.80
2017-09-09T16:16:53.189Z,3.83
2017-09-09T16:19:22.432Z,3.20
2017-09-09T16:21:52.484Z,3.00
2017-09-09T16:24:21.793Z,3.30
2017-09-09T16:26:51.053Z,3.43
2017-09-09T16:29:20.549Z,3.13
2017-09-09T16:31:50.689Z,3.60
2017-09-09T16:34:20.131Z,3.97
2017-09-09T16:36:49.281Z,3.13
2017-09-09T16:39:18.453Z,3.67
2017-09-09T16:41:48.619Z,3.73
2017-09-09T16:44:19.286Z,3.00
2017-09-09T16:46:49.486Z,3.70
2017-09-09T16:49:18.794Z,3.30
2017-09-09T16:51:48.091Z,3.40
2017-09-09T16:54:17.671Z,3.83
2017-09-09T16:56:47.762Z,3.40
2017-09-09T16:59:17.104Z,3.87
2017-09-09T17:01:46.502Z,3.80
2017-09-09T17:04:15.923Z,3.33
2017-09-09T17:06:45.357Z,3.67
2017-09-09T17:09:14.567Z,3.73
2017-09-09T17:11:44.051Z,3.50
2017-09-09T17:14:14.028Z,3.70
2017-09-09T17:16:43.389Z,3.53
2017-09-09T17:19:12.596Z,3.73
2017-09-09T17:21:41.799Z,4.23
2017-09-09T17:24:11.784Z,4.10
2017-09-09T17:26:41.110Z,3.90
2017-09-09T17:29:10.791Z,4.50
2017-09-09T17:31:40.265Z,5.43
2017-09-09T17:34:09.744Z,4.90
2017-09-09T17:39:18.414Z,4.30
2017-09-09T17:41:47.238Z,4.23
2017-09-09T17:44:16.652Z,4.30
2017-09-09T17:46:46.170Z,4.43
2017-09-09T17:49:15.479Z,4.73
2017-09-09T17:51:44.815Z,4.40
2017-09-09T17:54:13.946Z,4.40
2017-09-09T17:56:45.443Z,3.70
2017-09-09T17:59:20.472Z,4.37
2017-09-09T18:01:49.680Z,4.03
2017-09-09T18:04:19.033Z,4.20
2017-09-09T18:06:48.435Z,4.03
2017-09-09T18:09:18.359Z,4.77
2017-09-09T18:11:47.509Z,4.53
2017-09-09T18:14:17.341Z,4.87
2017-09-09T18:16:49.233Z,4.67
2017-09-09T18:19:18.713Z,4.47
2017-09-09T18:21:48.164Z,4.80
2017-09-09T18:24:17.641Z,4.63
2017-09-09T18:26:46.717Z,4.60
2017-09-09T18:29:16.279Z,5.87
2017-09-09T18:31:45.419Z,5.20
2017-09-09T18:34:14.838Z,4.53
2017-09-09T18:36:44.079Z,5.57
2017-09-09T18:39:13.112Z,4.93
2017-09-09T18:41:42.326Z,6.70
2017-09-09T18:44:11.798Z,5.77
2017-09-09T18:46:41.257Z,5.30
2017-09-09T18:49:10.423Z,5.47
2017-09-09T18:51:40.978Z,5.80
2017-09-09T18:54:10.345Z,5.83
2017-09-09T18:56:39.829Z,4.87
2017-09-09T18:59:09.337Z,5.10
2017-09-09T19:01:38.641Z,5.20
2017-09-09T19:04:07.844Z,5.87
2017-09-09T19:06:37.339Z,5.87
2017-09-09T19:09:06.680Z,5.33
2017-09-09T19:11:35.892Z,5.50
2017-09-09T19:14:05.285Z,7.63
2017-09-09T19:16:35.770Z,5.70
2017-09-09T19:19:05.231Z,6.60
2017-09-09T19:21:34.624Z,5.90
2017-09-09T19:24:04.000Z,5.73
2017-09-09T19:26:33.544Z,5.40
2017-09-09T19:29:02.801Z,6.20
2017-09-09T19:31:32.154Z,6.83
2017-09-09T19:34:01.519Z,7.03
2017-09-09T19:36:30.765Z,6.77
2017-09-09T19:39:00.172Z,6.80
2017-09-09T19:41:29.561Z,7.50
2017-09-09T19:43:59.578Z,7.20
2017-09-09T19:46:28.707Z,6.90
2017-09-09T19:48:58.184Z,6.50
2017-09-09T19:51:27.717Z,7.50
2017-09-09T19:53:56.996Z,6.60
2017-09-09T19:56:27.003Z,7.47
2017-09-09T19:58:56.471Z,7.13
2017-09-09T20:01:25.874Z,7.33
2017-09-09T20:03:54.901Z,7.53
2017-09-09T20:06:24.879Z,7.17
2017-09-09T20:08:54.188Z,6.33
2017-09-09T20:11:23.366Z,6.80
2017-09-09T20:13:52.316Z,6.73
2017-09-09T20:16:21.050Z,7.30
2017-09-09T20:18:51.570Z,8.23
2017-09-09T20:21:20.746Z,7.10
2017-09-09T20:23:50.135Z,8.20
2017-09-09T20:26:19.636Z,7.97
2017-09-09T20:28:48.410Z,8.20
2017-09-09T20:31:17.110Z,8.00
2017-09-09T20:33:46.489Z,10.70
2017-09-09T20:36:15.850Z,7.23
2017-09-09T20:38:44.845Z,6.20
2017-09-09T20:41:14.288Z,6.00
2017-09-09T20:43:43.740Z,6.50
2017-09-09T20:46:13.164Z,6.03
2017-09-09T20:48:42.499Z,6.03
2017-09-09T20:51:12.076Z,6.23
2017-09-09T20:53:41.667Z,7.17
2017-09-09T20:56:11.115Z,6.70
2017-09-09T20:58:40.426Z,6.10
2017-09-09T21:01:09.829Z,7.07
2017-09-09T21:03:39.527Z,7.27
2017-09-09T21:06:08.843Z,7.80
2017-09-09T21:08:38.031Z,7.10
2017-09-09T21:11:07.336Z,8.00
2017-09-09T21:13:36.892Z,7.60
2017-09-09T21:16:06.433Z,7.30
2017-09-09T21:18:35.731Z,8.27
2017-09-09T21:21:06.076Z,7.63
2017-09-09T21:23:35.556Z,7.13
2017-09-09T21:26:04.647Z,7.30
2017-09-09T21:28:34.108Z,7.03
2017-09-09T21:31:03.270Z,7.43
2017-09-09T21:33:32.365Z,7.53
2017-09-09T21:36:01.872Z,7.50
2017-09-09T21:38:31.302Z,7.93
2017-09-09T21:41:01.620Z,6.70
2017-09-09T21:43:30.842Z,7.43
2017-09-09T21:46:00.104Z,7.80
2017-09-09T21:48:29.316Z,6.73
2017-09-09T21:50:58.558Z,6.40
2017-09-09T21:53:27.996Z,5.80
2017-09-09T21:55:57.571Z,5.63
2017-09-09T21:58:27.288Z,6.30
2017-09-09T22:00:56.806Z,6.17
2017-09-09T22:03:25.997Z,6.20
2017-09-09T22:05:55.539Z,6.07
2017-09-09T22:08:24.803Z,5.67
2017-09-09T22:10:53.952Z,6.00
2017-09-09T22:13:23.162Z,5.50
2017-09-09T22:15:52.476Z,5.37
2017-09-09T22:18:21.643Z,5.43
2017-09-09T22:20:50.842Z,5.10
2017-09-09T22:23:20.812Z,4.40
2017-09-09T22:25:49.980Z,3.67
2017-09-09T22:28:19.388Z,3.60
2017-09-09T22:30:48.868Z,4.60
2017-09-09T22:33:18.253Z,3.80
2017-09-09T22:35:47.664Z,3.77
2017-09-09T22:38:16.863Z,3.20
2017-09-09T22:40:46.190Z,4.00
2017-09-09T22:43:15.592Z,3.40
2017-09-09T22:45:44.926Z,3.57
2017-09-09T22:48:14.353Z,3.83
2017-09-09T22:50:44.061Z,3.40
2017-09-09T22:53:13.388Z,4.03
2017-09-09T22:55:43.250Z,4.10
2017-09-09T22:58:12.449Z,4.07
2017-09-09T23:00:41.769Z,3.60
2017-09-09T23:03:10.889Z,3.83
2017-09-09T23:05:40.247Z,4.03
2017-09-09T23:08:09.381Z,4.13
2017-09-09T23:10:38.848Z,4.17
2017-09-09T23:13:07.957Z,3.37
2017-09-09T23:15:37.524Z,3.10
2017-09-09T23:18:07.074Z,3.93
2017-09-09T23:20:36.539Z,3.07
2017-09-09T23:23:05.926Z,3.10
2017-09-09T23:25:37.195Z,2.70
2017-09-09T23:28:06.727Z,2.97
2017-09-09T23:30:35.837Z,2.87
2017-09-09T23:33:06.391Z,3.00
2017-09-09T23:35:35.693Z,2.80
2017-09-09T23:38:04.834Z,2.70
2017-09-09T23:40:33.926Z,2.50
2017-09-09T23:43:03.132Z,2.40
2017-09-09T23:45:32.703Z,1.70
2017-09-09T23:48:02.929Z,2.33
2017-09-09T23:50:33.679Z,1.87
2017-09-09T23:53:03.209Z,2.00
2017-09-09T23:55:32.599Z,2.13
2017-09-09T23:58:01.728Z,2.13
